地図

経路データ

SID SEASON NUMBER BASIN SUBBASIN NAME ISO_TIME NATURE LAT LON WMO_WIND WMO_PRES WMO_AGENCY TRACK_TYPE DIST2LAND LANDFALL IFLAG USA_AGENCY USA_ATCF_ID USA_LAT USA_LON USA_RECORD USA_STATUS USA_WIND USA_PRES USA_SSHS USA_R34_NE USA_R34_SE USA_R34_SW USA_R34_NW USA_R50_NE USA_R50_SE USA_R50_SW USA_R50_NW USA_R64_NE USA_R64_SE USA_R64_SW USA_R64_NW USA_POCI USA_ROCI USA_RMW USA_EYE TOKYO_LAT TOKYO_LON TOKYO_GRADE TOKYO_WIND TOKYO_PRES TOKYO_R50_DIR TOKYO_R50_LONG TOKYO_R50_SHORT TOKYO_R30_DIR TOKYO_R30_LONG TOKYO_R30_SHORT TOKYO_LAND CMA_LAT CMA_LON CMA_CAT CMA_WIND CMA_PRES HKO_LAT HKO_LON HKO_CAT HKO_WIND HKO_PRES NEWDELHI_LAT NEWDELHI_LON NEWDELHI_GRADE NEWDELHI_WIND NEWDELHI_PRES NEWDELHI_CI NEWDELHI_DP NEWDELHI_POCI REUNION_LAT REUNION_LON REUNION_TYPE REUNION_WIND REUNION_PRES REUNION_TNUM REUNION_CI REUNION_RMW REUNION_R34_NE REUNION_R34_SE REUNION_R34_SW REUNION_R34_NW REUNION_R50_NE REUNION_R50_SE REUNION_R50_SW REUNION_R50_NW REUNION_R64_NE REUNION_R64_SE REUNION_R64_SW REUNION_R64_NW BOM_LAT BOM_LON BOM_TYPE BOM_WIND BOM_PRES BOM_TNUM BOM_CI BOM_RMW BOM_R34_NE BOM_R34_SE BOM_R34_SW BOM_R34_NW BOM_R50_NE BOM_R50_SE BOM_R50_SW BOM_R50_NW BOM_R64_NE BOM_R64_SE BOM_R64_SW BOM_R64_NW BOM_ROCI BOM_POCI BOM_EYE BOM_POS_METHOD BOM_PRES_METHOD NADI_LAT NADI_LON NADI_CAT NADI_WIND NADI_PRES WELLINGTON_LAT WELLINGTON_LON WELLINGTON_WIND WELLINGTON_PRES DS824_LAT DS824_LON DS824_STAGE DS824_WIND DS824_PRES TD9636_LAT TD9636_LON TD9636_STAGE TD9636_WIND TD9636_PRES TD9635_LAT TD9635_LON TD9635_WIND TD9635_PRES TD9635_ROCI NEUMANN_LAT NEUMANN_LON NEUMANN_CLASS NEUMANN_WIND NEUMANN_PRES MLC_LAT MLC_LON MLC_CLASS MLC_WIND MLC_PRES USA_GUST BOM_GUST BOM_GUST_PER REUNION_GUST REUNION_GUST_PER USA_SEAHGT USA_SEARAD_NE USA_SEARAD_SE USA_SEARAD_SW USA_SEARAD_NW STORM_SPEED STORM_DIR
1973255S08086 1974 96 SI MM ALICE 1973-09-12 06:00:00 TS -8.00000 86.0000 main 1591 1591 O________OO___ jtwc_sh SH031974 -8.00000 86.0000 -1 -8.00000 86.0000 TC 25 -8.00000 86.0000 7 7 236
1973255S08086 1974 96 SI MM ALICE 1973-09-12 09:00:00 TS -8.20345 85.6961 main 1631 1631 P________PP___ SH031974 -8.21754 85.7026 -1 -8.21754 85.7026 TC 25 -8.17528 85.6831 7 7 238
1973255S08086 1974 96 SI MM ALICE 1973-09-12 12:00:00 TS -8.38012 85.3910 main 1670 1670 O________OP___ jtwc_sh SH031974 -8.40000 85.4000 -1 -8.40000 85.4000 TC 25 -8.34035 85.3729 7 7 243
1973255S08086 1974 96 SI MM ALICE 1973-09-12 15:00:00 TS -8.51007 85.0870 main 1689 1685 P________PP___ SH031974 -8.52249 85.0925 -1 -8.52249 85.0925 TC 25 -8.48524 85.0762 7 6 249
1973255S08086 1974 96 SI MM ALICE 1973-09-12 18:00:00 TS -8.60000 84.8000 main 1690 1684 O________OO___ jtwc_sh SH031974 -8.60000 84.8000 -1 -8.60000 84.8000 TC 25 -8.60000 84.8000 7 6 254
1973255S08086 1974 96 SI MM ALICE 1973-09-12 21:00:00 TS -8.66447 84.5487 main 1692 1686 P________PP___ SH031974 -8.65745 84.5500 -1 -8.65745 84.5500 TC 25 -8.67849 84.5461 7 5 258
1973255S08086 1974 96 SI MM ALICE 1973-09-13 00:00:00 TS -8.70987 84.2983 main 1686 1681 O________OP___ jtwc_sh SH031974 -8.70000 84.3000 -1 -8.70000 84.3000 TC 25 -8.72961 84.2948 7 5 260
1973255S08086 1974 96 SI MM ALICE 1973-09-13 03:00:00 TS -8.75527 84.0270 main 1689 1682 P________PP___ SH031974 -8.74993 84.0300 -1 -8.74993 84.0300 TC 25 -8.76594 84.0211 7 6 261
1973255S08086 1974 96 SI MM ALICE 1973-09-13 06:00:00 TS -8.80000 83.7000 main 1682 1674 O________OO___ jtwc_sh SH031974 -8.80000 83.7000 -1 -8.80000 83.7000 TC 25 -8.80000 83.7000 7 7 263
1973255S08086 1974 96 SI MM ALICE 1973-09-13 09:00:00 TS -8.85141 83.2804 main 1685 1676 P________PP___ SH031974 -8.85002 83.2725 -1 -8.85002 83.2725 TC 25 -8.85419 83.2963 7 9 263
1973255S08086 1974 96 SI MM ALICE 1973-09-13 12:00:00 TS -8.90255 82.8150 main 1676 1670 O________OP___ jtwc_sh SH031974 -8.90000 82.8000 -1 -8.90000 82.8000 TC 25 -8.90766 82.8450 7 9 264
1973255S08086 1974 96 SI MM ALICE 1973-09-13 15:00:00 TS -8.95241 82.3521 main 1681 1675 P________PP___ SH031974 -8.94997 82.3425 -1 -8.94997 82.3425 TC 25 -8.95728 82.3713 7 9 264
1973255S08086 1974 96 SI MM ALICE 1973-09-13 18:00:00 TS -9.00000 81.9000 main 1675 1672 O________OO___ jtwc_sh SH031974 -9.00000 81.9000 -1 -9.00000 81.9000 TC 25 -9.00000 81.9000 7 9 263
1973255S08086 1974 96 SI MM ALICE 1973-09-13 21:00:00 TS -9.05293 81.4974 main 1683 1681 P________PP___ SH031974 -9.05741 81.5000 -1 -9.05741 81.5000 TC 25 -9.04397 81.4922 7 8 263
1973255S08086 1974 96 SI MM ALICE 1973-09-14 00:00:00 TS -9.09313 81.0958 main 1681 1680 O________OP___ jtwc_sh SH031974 -9.10000 81.1000 -1 -9.10000 81.1000 TC 25 -9.07940 81.0875 7 8 266
1973255S08086 1974 96 SI MM ALICE 1973-09-14 03:00:00 TS -9.10999 80.6697 main 1680 1680 P________PP___ SH031974 -9.11491 80.6725 -1 -9.11491 80.6725 TC 25 -9.10016 80.6641 7 8 271
1973255S08086 1974 96 SI MM ALICE 1973-09-14 06:00:00 TS -9.08571 80.3143 main 1681 1670 O____O___OO_O_ jtwc_sh SH031974 -9.10000 80.2000 -1 -9.00000 81.0000 2 9.90000 -9.10000 80.2000 TC 25 -9.10000 80.2000 7 -9.00000 81.0000 TC 25 8 275
1973255S08086 1974 96 SI MM ALICE 1973-09-14 09:00:00 TS -9.03624 79.8732 main 1671 1663 P____P___PP_P_ SH031974 -9.05745 79.6725 -1 -8.95013 80.5001 2 -9.05745 79.6725 TC 25 -9.07993 79.6478 7 -8.95013 80.5001 TC 27 9 279
1973255S08086 1974 96 SI MM ALICE 1973-09-14 12:00:00 TS -8.94174 79.3905 reunion main 1663 1655 O____O___OP_O_ jtwc_sh SH031974 -9.00000 79.1000 -1 -8.80000 80.0000 99 9.90000 -9.00000 79.1000 TC 25 -9.03785 79.0574 7 -8.80000 80.0000 TC 30 10 285
1973255S08086 1974 96 SI MM ALICE 1973-09-14 15:00:00 TS -8.77835 78.8866 main 1657 1643 P____P___PP_P_ SH031974 -8.95754 78.4850 -1 -8.49994 79.4998 99 -8.95754 78.4850 TC 25 -8.97679 78.4634 7 -8.49994 79.4998 TC 30 11 287
1973255S08086 1974 96 SI MM ALICE 1973-09-14 18:00:00 TS -8.62000 78.3400 reunion main 1644 1639 O____O___OO_O_ jtwc_sh SH031974 -8.90000 77.9000 -1 -8.20000 79.0000 99 9.90000 -8.90000 77.9000 TC 25 -8.90000 77.9000 7 -8.20000 79.0000 TC 30 11 285
1973255S08086 1974 96 SI MM ALICE 1973-09-14 21:00:00 TS -8.51253 77.8604 main 1641 1638 P____P___PP_P_ SH031974 -8.80736 77.4275 -1 -8.05494 78.5001 99 -8.80736 77.4275 TC 25 -8.83804 77.4468 7 -8.05494 78.5001 TC 30 9 281
1973255S08086 1974 96 SI MM ALICE 1973-09-15 00:00:00 TS -8.43180 77.4046 reunion main 1641 1641 O____O___OP_O_ jtwc_sh SH031974 -8.70000 77.0000 -1 -8.00000 78.0000 99 9.90000 -8.70000 77.0000 TC 25 -8.75900 77.0229 7 -8.00000 78.0000 TC 30 9 278
1973255S08086 1974 96 SI MM ALICE 1973-09-15 03:00:00 TS -8.37902 76.9466 main 1654 1649 P____P___PP_P_ SH031974 -8.62232 76.5801 -1 -7.99997 77.4926 99 -8.62232 76.5801 TC 25 -8.65051 76.5876 7 -7.99997 77.4926 TC 30 9 278
1973255S08086 1974 96 SI MM ALICE 1973-09-15 06:00:00 TS -8.30000 76.4600 reunion main 1654 1653 O____O___OO_O_ jtwc_sh SH031974 -8.50000 76.1000 -1 -8.00000 77.0000 2 9.90000 -8.50000 76.1000 TC 25 -8.50000 76.1000 7 -8.00000 77.0000 TC 30 11 282
1973255S08086 1974 96 SI MM ALICE 1973-09-15 09:00:00 TS -8.14659 75.8410 main 1656 1656 P____P___PP_P_ SH031974 -8.27252 75.4799 -1 -7.91430 76.5441 2 -8.27252 75.4799 TC 25 -8.26474 75.5110 7 -7.91430 76.5441 TC 30 14 285
1973255S08086 1974 96 SI MM ALICE 1973-09-15 12:00:00 TS -7.94813 75.1417 reunion main 1661 1661 O____O___OP_O_ jtwc_sh SH031974 -8.00000 74.8000 -1 -7.80000 76.1000 99 9.90000 -8.00000 74.8000 TC 25 -7.99253 74.8666 7 -7.80000 76.1000 TC 30 15 286
1973255S08086 1974 96 SI MM ALICE 1973-09-15 15:00:00 TS -7.74000 74.3798 main 1669 1669 P________PP___ SH031974 -7.73487 74.1575 -1 99 -7.73487 74.1575 TC 25 -7.72402 74.1891 7 TC 17 285
1973255S08086 1974 96 SI MM ALICE 1973-09-15 18:00:00 TS -7.50000 73.5000 reunion main 1690 1690 O________OO___ jtwc_sh SH031974 -7.50000 73.5000 -1 99 -7.50000 73.5000 TC 25 -7.50000 73.5000 7 TC 16 285
1973255S08086 1974 96 SI MM ALICE 1973-09-15 21:00:00 TS -7.31833 72.7999 main 1707 1707 P________PP___ SH031974 -7.31246 72.8000 -1 99 -7.31246 72.8000 TC 25 -7.33007 72.7998 7 TC 14 282
1973255S08086 1974 96 SI MM ALICE 1973-09-16 00:00:00 TS -7.20505 72.0992 reunion main 1737 1737 O________OP___ jtwc_sh SH031974 -7.20000 72.1000 -1 99 -7.20000 72.1000 TC 25 -7.21515 72.0975 7 TC 14 277
1973255S08086 1974 96 SI MM ALICE 1973-09-16 03:00:00 TS -7.15918 71.4205 main 1779 1779 P________PP___ SH031974 -7.15496 71.4200 -1 99 -7.15496 71.4200 TC 25 -7.16762 71.4215 7 TC 13 270
1973255S08086 1974 96 SI MM ALICE 1973-09-16 06:00:00 TS -7.20000 70.8000 reunion main 1816 1816 O________OO___ jtwc_sh SH031974 -7.20000 70.8000 -1 99 -7.20000 70.8000 TC 25 -7.20000 70.8000 7 TC 12 262
1973255S08086 1974 96 SI MM ALICE 1973-09-16 09:00:00 TS -7.31238 70.2666 main 1858 1858 P________PP___ SH031974 -7.31239 70.2700 -1 99 -7.31239 70.2700 TC 25 -7.31237 70.2597 7 TC 10 253
1973255S08086 1974 96 SI MM ALICE 1973-09-16 12:00:00 TS -7.50065 69.7918 reunion main 1909 1875 O________OP___ jtwc_sh SH031974 -7.50000 69.8000 -1 99 -7.50000 69.8000 TC 25 -7.50196 69.7754 7 TC 10 245
1973255S08086 1974 96 SI MM ALICE 1973-09-16 15:00:00 TS -7.73683 69.3328 main 1867 1813 P________PP___ SH031974 -7.73495 69.3350 -1 99 -7.73495 69.3350 TC 25 -7.74058 69.3283 7 TC 10 241
1973255S08086 1974 96 SI MM ALICE 1973-09-16 18:00:00 TS -8.00000 68.9000 reunion main 1813 1768 O________OO___ jtwc_sh SH031974 -8.00000 68.9000 -1 99 -8.00000 68.9000 TC 25 -8.00000 68.9000 7 TC 10 239
1973255S08086 1974 96 SI MM ALICE 1973-09-16 21:00:00 TS -8.24372 68.4881 main 1768 1714 P________PP___ SH031974 -8.24991 68.4999 -1 99 -8.24991 68.4999 TC 25 -8.23132 68.4645 7 TC 10 239
1973255S08086 1974 96 SI MM ALICE 1973-09-17 00:00:00 TS -8.49239 68.0807 reunion main 1714 1668 O________OP___ jtwc_sh SH031974 -8.50000 68.1000 -1 99 -8.50000 68.1000 TC 25 -8.47717 68.0422 7 TC 10 239
1973255S08086 1974 96 SI MM ALICE 1973-09-17 03:00:00 TS -8.74480 67.6462 main 1661 1608 P________PP___ SH031974 -8.74997 67.6574 -1 99 -8.74997 67.6574 TC 25 -8.73445 67.6238 7 TC 10 240
1973255S08086 1974 96 SI MM ALICE 1973-09-17 06:00:00 TS -9.00000 67.2000 reunion main 1608 1563 O________OO___ jtwc_sh SH031974 -9.00000 67.2000 -1 99 -9.00000 67.2000 TC 25 -9.00000 67.2000 7 TC 10 240
1973255S08086 1974 96 SI MM ALICE 1973-09-17 09:00:00 TS -9.25224 66.7496 main 1547 1503 P________PP___ SH031974 -9.24244 66.7499 -1 99 -9.24244 66.7499 TC 25 -9.27182 66.7490 7 TC 10 240
1973255S08086 1974 96 SI MM ALICE 1973-09-17 12:00:00 TS -9.51665 66.2975 reunion main 1503 1450 O________OP___ jtwc_sh SH031974 -9.50000 66.3000 -1 99 -9.50000 66.3000 TC 25 -9.54994 66.2924 7 TC 11 238
1973255S08086 1974 96 SI MM ALICE 1973-09-17 15:00:00 TS -9.80934 65.8415 main 1443 1390 P________PP___ SH031974 -9.79997 65.8425 -1 99 -9.79997 65.8425 TC 25 -9.82808 65.8396 7 TC 11 237
1973255S08086 1974 96 SI MM ALICE 1973-09-17 18:00:00 TS -10.1000 65.4000 reunion main 1390 1338 O________OO___ jtwc_sh SH031974 -10.1000 65.4000 -1 99 -10.1000 65.4000 TC 25 -10.1000 65.4000 7 TC 10 236
1973255S08086 1974 96 SI MM ALICE 1973-09-17 21:00:00 TS -10.3668 64.9874 main 1338 1294 P________PP___ SH031974 -10.3574 64.9924 -1 99 -10.3574 64.9924 TC 25 -10.3854 64.9776 7 TC 10 237
1973255S08086 1974 96 SI MM ALICE 1973-09-18 00:00:00 TS -10.6199 64.5900 reunion main 1294 1265 O________OP___ jtwc_sh SH031974 -10.6000 64.6000 -1 99 -10.6000 64.6000 TC 25 -10.6598 64.5701 7 TC 9 255
1973255S08086 1974 96 SI MM ALICE 1973-09-18 03:00:00 TS -10.5987 64.1061 main 1265 1236 P________PP___ SH031974 -10.8725 64.1925 -1 99 -10.8725 64.1925 TC 25 -10.9042 64.1776 7 TC 10 273
1973255S08086 1974 96 SI MM ALICE 1973-09-18 06:00:00 TS -10.5750 63.6000 reunion main 1236 1215 O____O___OO_O_ jtwc_sh SH031974 -11.1000 63.8000 -1 -9.00000 63.0000 2 9.90000 -11.1000 63.8000 TC 25 -11.1000 63.8000 7 -9.00000 63.0000 TC 30 10 270
1973255S08086 1974 96 SI MM ALICE 1973-09-18 09:00:00 TS -10.5990 63.1351 main 1210 1185 P____P___PP_P_ SH031974 -11.2299 63.4424 -1 -9.37013 62.5594 2 -11.2299 63.4424 TC 25 -11.2332 63.4353 7 -9.37013 62.5594 TC 30 9 264
1973255S08086 1974 96 SI MM ALICE 1973-09-18 12:00:00 TS -10.6634 62.7369 reunion main 1180 1160 O____O___OP_O_ jtwc_sh SH031974 -11.3000 63.1000 -1 -9.70000 62.2000 99 9.90000 -11.3000 63.1000 TC 25 -11.3172 63.0846 7 -9.70000 62.2000 TC 30 7 255
1973255S08086 1974 96 SI MM ALICE 1973-09-18 15:00:00 TS -10.7825 62.4393 main 1156 1136 P____P___PP_P_ SH031974 -11.3650 62.7500 -1 -9.90740 61.9773 99 -11.3650 62.7500 TC 25 -11.3676 62.7417 7 -9.90740 61.9773 TC 30 6 249
1973255S08086 1974 96 SI MM ALICE 1973-09-18 18:00:00 TS -10.8800 62.1600 reunion main 1136 1113 O____O___OO_O_ jtwc_sh SH031974 -11.4000 62.4000 -1 -10.1000 61.8000 99 9.90000 -11.4000 62.4000 TC 25 -11.4000 62.4000 7 -10.1000 61.8000 TC 30 6 249
1973255S08086 1974 96 SI MM ALICE 1973-09-18 21:00:00 TS -11.0108 61.8462 main 1109 1090 P____P___PP_P_ SH031974 -11.4000 62.0499 -1 -10.4075 61.5426 99 -11.4000 62.0499 TC 25 -11.4393 62.0458 7 -10.4075 61.5426 TC 30 7 247
1973255S08086 1974 96 SI MM ALICE 1973-09-19 00:00:00 TS -11.1330 61.5385 reunion main 1086 1068 O____O___OP_O_ jtwc_sh SH031974 -11.4000 61.7000 -1 -10.7000 61.3000 99 9.90000 -11.4000 61.7000 TC 25 -11.4649 61.6924 7 -10.7000 61.3000 TC 30 6 249
1973255S08086 1974 96 SI MM ALICE 1973-09-19 03:00:00 TS -11.2286 61.2715 main 1068 1046 P____P___PP_P_ SH031974 -11.4500 61.3500 -1 -10.8799 61.1574 99 -11.4500 61.3500 TC 25 -11.4830 61.3427 7 -10.8799 61.1574 TC 30 6 252
1973255S08086 1974 96 SI MM ALICE 1973-09-19 06:00:00 TS -11.3000 61.0000 reunion main 1046 1035 O____O___OO_O_ jtwc_sh SH031974 -11.5000 61.0000 -1 -11.0000 61.0000 2 9.90000 -11.5000 61.0000 TC 25 -11.5000 61.0000 7 -11.0000 61.0000 TC 30 6 259
1973255S08086 1974 96 SI MM ALICE 1973-09-19 09:00:00 TS -11.3474 60.6719 main 1035 1015 P____P___PP_P_ SH031974 -11.5000 60.6424 -1 -11.1001 60.7075 2 -11.5000 60.6424 TC 25 -11.5371 60.6598 7 -11.1001 60.7075 TC 30 6 262
1973255S08086 1974 96 SI MM ALICE 1973-09-19 12:00:00 TS -11.3945 60.3455 reunion main 1012 996 O____O___OP_O_ jtwc_sh SH031974 -11.5000 60.3000 -1 -11.2000 60.4000 99 9.90000 -11.5000 60.3000 TC 25 -11.5724 60.3276 7 -11.2000 60.4000 TC 30 6 258
1973255S08086 1974 96 SI MM ALICE 1973-09-19 15:00:00 TS -11.4733 60.0723 main 996 977 P____P___PP_P_ SH031974 -11.5500 59.9850 -1 -11.3349 60.1924 99 -11.5500 59.9850 TC 25 -11.5965 60.0067 7 -11.3349 60.1924 TC 30 5 252
1973255S08086 1974 96 SI MM ALICE 1973-09-19 18:00:00 TS -11.5600 59.8200 reunion main 977 972 O____O___OO_O_ jtwc_sh SH031974 -11.6000 59.7000 -1 -11.5000 60.0000 99 9.90000 -11.6000 59.7000 TC 25 -11.6000 59.7000 7 -11.5000 60.0000 TC 30 5 250
1973255S08086 1974 96 SI MM ALICE 1973-09-19 21:00:00 TS -11.6532 59.5733 main 961 955 P____P___PP_P_ SH031974 -11.6224 59.4500 -1 -11.7150 59.7576 99 -11.6224 59.4500 TC 25 -11.5914 59.4514 7 -11.7150 59.7576 TC 32 5 253
1973255S08086 1974 96 SI MM ALICE 1973-09-20 00:00:00 TS -11.7118 59.3221 reunion main 955 951 O____O___OP_O_ jtwc_sh SH031974 -11.6000 59.2000 -1 -11.9000 59.5000 99 9.90000 -11.6000 59.2000 TC 25 -11.5592 59.2103 7 -11.9000 59.5000 TC 35 5 264
1973255S08086 1974 96 SI MM ALICE 1973-09-20 03:00:00 TS -11.7034 59.0838 main 951 947 P____P___PP_P_ SH031974 -11.5224 58.9375 -1 -11.9873 59.3025 99 -11.5224 58.9375 TC 25 -11.4975 58.9390 7 -11.9873 59.3025 TC 35 6 277
1973255S08086 1974 96 SI MM ALICE 1973-09-20 06:00:00 TS -11.6400 58.7600 reunion main 958 923 O____O___OO_O_ jtwc_sh SH031974 -11.4000 58.6000 -1 -12.0000 59.0000 3 9.90000 -11.4000 58.6000 TC 25 -11.4000 58.6000 7 -12.0000 59.0000 TC 35 8 281
1973255S08086 1974 96 SI MM ALICE 1973-09-20 09:00:00 TS -11.5465 58.2590 main 926 866 P____P___PP_P_ SH031974 -11.2650 58.1375 -1 -11.9727 58.4450 3 -11.2650 58.1375 TC 25 -11.2573 58.1303 7 -11.9727 58.4450 TC 37 11 282
1973255S08086 1974 96 SI MM ALICE 1973-09-20 12:00:00 TS -11.4161 57.6789 reunion main 866 805 O____O___OP_O_ jtwc_sh SH031974 -11.1000 57.6000 -1 -11.9000 57.8000 99 9.90000 -11.1000 57.6000 TC 25 -11.0806 57.5945 7 -11.9000 57.8000 TC 40 12 284
1973255S08086 1974 96 SI MM ALICE 1973-09-20 15:00:00 TS -11.2697 57.1183 main 805 759 P____P___PP_P_ SH031974 -10.9001 57.0349 -1 -11.8298 57.2426 99 -10.9001 57.0349 TC 25 -10.8885 57.0365 7 -11.8298 57.2426 TC 42 11 286
1973255S08086 1974 96 SI MM ALICE 1973-09-20 18:00:00 TS -11.1000 56.5800 reunion main 759 714 O____O___OO_O_ jtwc_sh SH031974 -10.7000 56.5000 -1 -11.7000 56.7000 99 9.90000 -10.7000 56.5000 TC 25 -10.7000 56.5000 7 -11.7000 56.7000 TC 45 11 290
1973255S08086 1974 96 SI MM ALICE 1973-09-20 21:00:00 TS -10.9121 56.1088 main 714 677 P____P___PP_P_ SH031974 -10.5423 56.0851 -1 -11.4649 56.1574 99 -10.5423 56.0851 TC 25 -10.5464 56.0588 7 -11.4649 56.1574 TC 42 10 293
1973255S08086 1974 96 SI MM ALICE 1973-09-21 00:00:00 TS -10.7199 55.6486 reunion main 672 636 O____O___OP_O_ jtwc_sh SH031974 -10.4000 55.7000 -1 -11.2000 55.6000 99 9.90000 -10.4000 55.7000 TC 25 -10.3993 55.6430 7 -11.2000 55.6000 TC 40 10 291
1973255S08086 1974 96 SI MM ALICE 1973-09-21 03:00:00 TS -10.5535 55.1552 main 636 598 P____P___PP_P_ SH031974 -10.2574 55.2651 -1 -10.9999 55.0077 99 -10.2574 55.2651 TC 25 -10.2527 55.2306 7 -10.9999 55.0077 TC 37 11 289
1973255S08086 1974 96 SI MM ALICE 1973-09-21 06:00:00 TS -10.3800 54.6400 reunion main 589 554 O____O___OO_O_ jtwc_sh SH031974 -10.1000 54.8000 -1 -10.8000 54.4000 3 9.90000 -10.1000 54.8000 TC 25 -10.1000 54.8000 1 -10.8000 54.4000 TC 35 11 291
1973255S08086 1974 96 SI MM ALICE 1973-09-21 09:00:00 TS -10.1571 54.1056 main 554 520 P____P___PP_P_ SH031974 -9.89996 54.3075 -1 -10.5349 53.7999 3 -9.89996 54.3075 TC 25 -9.91595 54.3133 1 -10.5349 53.7999 TC 32 11 292
1973255S08086 1974 96 SI MM ALICE 1973-09-21 12:00:00 TS -9.94551 53.5615 reunion main 526 476 O____O___OP_O_ jtwc_sh SH031974 -9.70000 53.8000 -1 -10.3000 53.2000 99 9.90000 -9.70000 53.8000 TC 25 -9.72753 53.8073 1 -10.3000 53.2000 TC 30 11 289
1973255S08086 1974 96 SI MM ALICE 1973-09-21 15:00:00 TS -9.79204 53.0106 main 476 439 P____P___PP_P_ SH031974 -9.53496 53.2925 -1 -10.1700 52.5851 99 -9.53496 53.2925 TC 25 -9.55031 53.2976 1 -10.1700 52.5851 TC 30 11 284
1973255S08086 1974 96 SI MM ALICE 1973-09-21 18:00:00 TS -9.68000 52.4800 reunion main 439 406 O____O___OO_O_ jtwc_sh SH031974 -9.40000 52.8000 -1 -10.1000 52.0000 99 9.90000 -9.40000 52.8000 TC 25 -9.40000 52.8000 1 -10.1000 52.0000 TC 30 10 280
1973255S08086 1974 96 SI MM ALICE 1973-09-21 21:00:00 TS -9.61625 52.0024 main 406 376 P____P___PP_P_ SH031974 -9.28491 52.3425 -1 -10.1098 51.4854 99 -9.28491 52.3425 TC 25 -9.29173 52.3562 1 -10.1098 51.4854 TC 30 9 280
1973255S08086 1974 96 SI MM ALICE 1973-09-22 00:00:00 TS -9.52237 51.5446 reunion main 377 366 O____O___OP_O_ jtwc_sh SH031974 -9.20000 51.9000 -1 -10.0000 51.0000 99 9.90000 -9.20000 51.9000 TC 25 -9.21186 51.9228 1 -10.0000 51.0000 TC 30 10 290
1973255S08086 1974 96 SI MM ALICE 1973-09-22 03:00:00 TS -9.28113 51.0844 main 370 363 P____P___PP_P_ SH031974 -9.14238 51.4650 -1 -9.48490 50.5070 99 -9.14238 51.4650 TC 25 -9.15108 51.4780 1 -9.48490 50.5070 TC 30 10 296
1973255S08086 1974 96 SI MM ALICE 1973-09-22 06:00:00 TS -9.06000 50.6000 reunion main 364 358 O____O___OO_O_ jtwc_sh SH031974 -9.10000 51.0000 -1 -9.00000 50.0000 2 9.90000 -9.10000 51.0000 TC 25 -9.10000 51.0000 1 -9.00000 50.0000 TC 30 10 283
1973255S08086 1974 96 SI MM ALICE 1973-09-22 09:00:00 TS -9.04770 50.0645 main 358 348 P____P___PP_P_ SH031974 -9.04995 50.4725 -1 -9.04995 49.4582 2 -9.04995 50.4725 TC 25 -9.03874 50.4609 1 -9.04995 49.4582 TC 30 10 272
1973255S08086 1974 96 SI MM ALICE 1973-09-22 12:00:00 TS -9.02999 49.5639 reunion main 348 347 O____O___OP_O_ jtwc_sh SH031974 -9.00000 49.9000 -1 -9.10000 48.9000 99 9.90000 -9.00000 49.9000 TC 25 -8.98497 49.8875 1 -9.10000 48.9000 TC 30 10 280
1973255S08086 1974 96 SI MM ALICE 1973-09-22 15:00:00 TS -8.87465 49.0575 main 358 358 P____P___PP_P_ SH031974 -8.94247 49.3000 -1 -8.73765 48.3467 99 -8.94247 49.3000 TC 25 -8.93869 49.2953 1 -8.73765 48.3467 TC 30 10 284
1973255S08086 1974 96 SI MM ALICE 1973-09-22 18:00:00 TS -8.78571 48.5714 reunion main 375 371 O____O___OO_O_ jtwc_sh SH031974 -8.90000 48.7000 -1 -8.10000 47.8000 99 9.90000 -8.90000 48.7000 TC 25 -8.90000 48.7000 1 -8.10000 47.8000 TC 30 9 268
1973255S08086 1974 96 SI MM ALICE 1973-09-22 21:00:00 TS -8.90926 48.1528 main 374 374 P________PP___ SH031974 -8.89985 48.1501 -1 99 -8.89985 48.1501 TC 25 -8.92808 48.1582 1 TC 10 262
1973255S08086 1974 96 SI MM ALICE 1973-09-23 00:00:00 TS -8.91800 47.6037 reunion main 398 398 O________OP___ jtwc_sh SH031974 -8.90000 47.6000 -1 -8.90000 47.6000 TC 25 -8.95399 47.6112 1 11 270
1973255S08086 1974 96 SI MM ALICE 1973-09-23 03:00:00 TS -8.90089 47.0262 main 431 431 P________PP___ SH031974 -8.88736 47.0226 -1 -8.88736 47.0226 TC 25 -8.92795 47.0335 1 12 276
1973255S08086 1974 96 SI MM ALICE 1973-09-23 06:00:00 TS -8.80000 46.4000 reunion main 480 480 O________OO___ jtwc_sh SH031974 -8.80000 46.4000 -1 -8.80000 46.4000 TC 25 -8.80000 46.4000 1 13 283
1973255S08086 1974 96 SI MM ALICE 1973-09-23 09:00:00 TS -8.59472 45.7230 main 548 548 P________PP___ SH031974 -8.62481 45.7377 -1 -8.62481 45.7377 TC 25 -8.53453 45.6936 1 15 291
1973255S08086 1974 96 SI MM ALICE 1973-09-23 12:00:00 TS -8.25142 44.9759 reunion main 552 511 O________OP___ jtwc_sh SH031974 -8.30000 45.0000 -1 -8.30000 45.0000 TC 25 -8.15426 44.9276 1 18 298
1973255S08086 1974 96 SI MM ALICE 1973-09-23 15:00:00 TS -7.76587 44.1572 main 511 408 P________PP___ SH031974 -7.80042 44.1744 -1 -7.80042 44.1744 TC 25 -7.69677 44.1228 1 20 302
1973255S08086 1974 96 SI MM ALICE 1973-09-23 18:00:00 TS -7.20000 43.3000 reunion main 408 O________OO___ jtwc_sh SH031974 -7.20000 43.3000 -1 -7.20000 43.3000 TC 25 -7.20000 43.3000 6 21 304

IBTrACS Databaseについて

本データベースは、米国NOAAが公開する1842年以降の世界の熱帯低気圧のベストトラックデータアーカイブInternational Best Track Archive for Climate Stewardship (IBTrACS)を、ウェブで閲覧しやすい形式に変換したものです。

最終更新日:2021-12-03